Sertosa Veintisiete — EAJZ — position and weather

sailwx.info

Track history (hours):
 
Tides and Currents Weather Stations Pressure Air Temp Water Temp Dewpoint Dewpoint Depression Visibility Wind Speed Wind Dir Waves Ship Positions

Sertosa Veintisiete

Last reported at 2015-Apr-20 23:31 UTC. Time now 2015-Apr-21 01:31 UTC.
Position N 36°11' W 005°24'.

Length 30 m; draft 5.5 m.

Type: Tug. MMSI: 224337000.

Date/timePositionNaut miles runAvg speedWind from/ knotsBaromVisibWave heightAir tempDewpointWater temp
2015-Apr-20 23:31N 36°11' W 005°24'1 0.4
2015-Apr-20 20:07N 36°09' W 005°24'1 0.1
2015-Apr-20 05:18N 36°10' W 005°23'1 0.9
2015-Apr-20 04:32N 36°10' W 005°24'0 0.3
2015-Apr-20 03:08N 36°11' W 005°24'0 0.8
2015-Apr-20 02:32N 36°11' W 005°24'0 0.3
2015-Apr-20 01:22N 36°11' W 005°24'0 0.2
2015-Apr-20 00:28N 36°11' W 005°24'0 0.3
2015-Apr-19 23:29N 36°11' W 005°24'1 1.3
2015-Apr-19 22:27N 36°10' W 005°23'2 0.8
2015-Apr-19 20:30N 36°11' W 005°24'0 0.0
2015-Apr-19 19:10N 36°11' W 005°24'0 0.0
2015-Apr-19 18:31N 36°11' W 005°24'1 0.4
2015-Apr-19 15:24N 36°10' W 005°23'0 0.0
2015-Apr-19 14:31N 36°10' W 005°23'0 0.0
2015-Apr-19 10:33N 36°10' W 005°23'0 0.0
2015-Apr-19 05:12N 36°10' W 005°23'1 1.4
2015-Apr-19 04:28N 36°10' W 005°24'1 0.3
2015-Apr-19 02:33N 36°11' W 005°24'0 0.0
2015-Apr-19 01:16N 36°11' W 005°24'0 0.1
2015-Apr-18 20:21N 36°11' W 005°24'1 0.2
2015-Apr-18 15:24N 36°10' W 005°23'0 0.0
2015-Apr-18 14:12N 36°10' W 005°23'0 0.3
2015-Apr-18 13:33N 36°10' W 005°23'0 0.0
2015-Apr-17 21:03N 36°10' W 005°23'1 1.6
2015-Apr-17 20:33N 36°11' W 005°24'0 0.2
2015-Apr-17 18:17N 36°10' W 005°23'1 0.4
2015-Apr-17 16:25N 36°11' W 005°24'3 2.9
2015-Apr-17 15:33N 36°08' W 005°26'1 1.2
2015-Apr-17 14:33N 36°09' W 005°24'2 1.5
2015-Apr-17 13:23N 36°11' W 005°24'0 0.0
2015-Apr-17 12:30N 36°11' W 005°24'1 0.6
2015-Apr-17 11:33N 36°11' W 005°24'1 0.5
2015-Apr-17 10:33N 36°11' W 005°24'1 0.8
2015-Apr-17 09:18N 36°10' W 005°23'1 0.9
2015-Apr-17 08:33N 36°10' W 005°24'1 0.9
2015-Apr-17 07:33N 36°10' W 005°25'0 0.3
2015-Apr-17 06:24N 36°10' W 005°25'1 0.4
2015-Apr-17 02:27N 36°10' W 005°23'0 0.0
2015-Apr-17 01:19N 36°10' W 005°23'1 1.4
2015-Apr-17 00:33N 36°11' W 005°24'1 0.7
2015-Apr-16 23:33N 36°10' W 005°24'1 0.6
2015-Apr-16 22:04N 36°10' W 005°23'0 0.0
2015-Apr-16 21:33N 36°10' W 005°23'1 0.3
2015-Apr-16 18:27N 36°11' W 005°24'0 0.1
2015-Apr-16 16:28N 36°11' W 005°24'0 0.1
2015-Apr-16 15:33N 36°11' W 005°24'0 0.1
2015-Apr-16 13:15N 36°11' W 005°24'0 0.0
2015-Apr-16 10:20N 36°11' W 005°24'0 0.2
2015-Apr-16 09:13N 36°11' W 005°24'0 0.0
2015-Apr-15 01:28N 36°11' W 005°24'0 0.4
2015-Apr-15 00:33N 36°11' W 005°24'0 0.2
2015-Apr-14 22:33N 36°10' W 005°24'0 0.0
2015-Apr-14 02:28N 36°10' W 005°24'1 0.1
2015-Apr-13 15:23N 36°10' W 005°25'1 0.7
2015-Apr-13 14:26N 36°10' W 005°25'1 1.1
2015-Apr-13 13:18N 36°11' W 005°24'0 0.1
2015-Apr-13 10:09N 36°11' W 005°24'0 0.3
2015-Apr-13 09:25N 36°11' W 005°24'0 0.5
2015-Apr-13 08:28N 36°11' W 005°24'0 0.0
2015-Apr-13 01:26N 36°11' W 005°24'1 0.6
2015-Apr-12 23:28N 36°10' W 005°23'1 0.2
2015-Apr-12 18:33N 36°11' W 005°24'0 0.2
2015-Apr-12 17:28N 36°11' W 005°24'0 0.3
2015-Apr-12 16:33N 36°11' W 005°24'0 0.3
2015-Apr-12 15:33N 36°11' W 005°24'1 0.6
2015-Apr-12 14:30N 36°10' W 005°25'0 0.3
2015-Apr-12 13:18N 36°10' W 005°24'0 0.1
2015-Apr-12 10:26N 36°11' W 005°24'1 0.8
2015-Apr-12 09:25N 36°10' W 005°24'1 0.4
2015-Apr-12 06:28N 36°10' W 005°23'0 0.1
2015-Apr-12 04:31N 36°10' W 005°23'1 1.1
2015-Apr-12 03:30N 36°11' W 005°24'0 0.0
2015-Apr-12 02:21N 36°11' W 005°24'0 0.0
2015-Apr-12 01:22N 36°11' W 005°24'1 0.5
2015-Apr-12 00:22N 36°11' W 005°24'1 0.6
2015-Apr-11 23:29N 36°11' W 005°24'0 0.0
2015-Apr-11 22:22N 36°11' W 005°24'0 0.0
2015-Apr-11 21:13N 36°11' W 005°24'1 0.7
2015-Apr-11 19:14N 36°10' W 005°23'1 0.2
2015-Apr-11 14:22N 36°10' W 005°24'1 0.2
2015-Apr-11 06:13N 36°11' W 005°25'1 0.8
2015-Apr-11 04:33N 36°11' W 005°24'0 0.1
2015-Apr-11 02:15N 36°10' W 005°24'0 0.1
2015-Apr-11 00:16N 36°11' W 005°24'  
Track history (hours):
 
Tides and Currents Weather Stations Pressure Air Temp Water Temp Dewpoint Dewpoint Depression Visibility Wind Speed Wind Dir Waves Ship Positions

Sertosa Veintisiete

Last reported at 2015-Apr-20 23:31 UTC. Time now 2015-Apr-21 01:31 UTC.
Position N 36°11' W 005°24'.

Length 30 m; draft 5.5 m.

Type: Tug. MMSI: 224337000.

Date/timePositionNaut miles runAvg speedWind from/ knotsBaromVisibWave heightAir tempDewpointWater temp
2015-Apr-20 23:31N 36°11' W 005°24'1 0.4
2015-Apr-20 20:07N 36°09' W 005°24'1 0.1
2015-Apr-20 05:18N 36°10' W 005°23'1 0.9
2015-Apr-20 04:32N 36°10' W 005°24'0 0.3
2015-Apr-20 03:08N 36°11' W 005°24'0 0.8
2015-Apr-20 02:32N 36°11' W 005°24'0 0.3
2015-Apr-20 01:22N 36°11' W 005°24'0 0.2
2015-Apr-20 00:28N 36°11' W 005°24'0 0.3
2015-Apr-19 23:29N 36°11' W 005°24'1 1.3
2015-Apr-19 22:27N 36°10' W 005°23'2 0.8
2015-Apr-19 20:30N 36°11' W 005°24'0 0.0
2015-Apr-19 19:10N 36°11' W 005°24'0 0.0
2015-Apr-19 18:31N 36°11' W 005°24'1 0.4
2015-Apr-19 15:24N 36°10' W 005°23'0 0.0
2015-Apr-19 14:31N 36°10' W 005°23'0 0.0
2015-Apr-19 10:33N 36°10' W 005°23'0 0.0
2015-Apr-19 05:12N 36°10' W 005°23'1 1.4
2015-Apr-19 04:28N 36°10' W 005°24'1 0.3
2015-Apr-19 02:33N 36°11' W 005°24'0 0.0
2015-Apr-19 01:16N 36°11' W 005°24'0 0.1
2015-Apr-18 20:21N 36°11' W 005°24'1 0.2
2015-Apr-18 15:24N 36°10' W 005°23'0 0.0
2015-Apr-18 14:12N 36°10' W 005°23'0 0.3
2015-Apr-18 13:33N 36°10' W 005°23'0 0.0
2015-Apr-17 21:03N 36°10' W 005°23'1 1.6
2015-Apr-17 20:33N 36°11' W 005°24'0 0.2
2015-Apr-17 18:17N 36°10' W 005°23'1 0.4
2015-Apr-17 16:25N 36°11' W 005°24'3 2.9
2015-Apr-17 15:33N 36°08' W 005°26'1 1.2
2015-Apr-17 14:33N 36°09' W 005°24'2 1.5
2015-Apr-17 13:23N 36°11' W 005°24'0 0.0
2015-Apr-17 12:30N 36°11' W 005°24'1 0.6
2015-Apr-17 11:33N 36°11' W 005°24'1 0.5
2015-Apr-17 10:33N 36°11' W 005°24'1 0.8
2015-Apr-17 09:18N 36°10' W 005°23'1 0.9
2015-Apr-17 08:33N 36°10' W 005°24'1 0.9
2015-Apr-17 07:33N 36°10' W 005°25'0 0.3
2015-Apr-17 06:24N 36°10' W 005°25'1 0.4
2015-Apr-17 02:27N 36°10' W 005°23'0 0.0
2015-Apr-17 01:19N 36°10' W 005°23'1 1.4
2015-Apr-17 00:33N 36°11' W 005°24'1 0.7
2015-Apr-16 23:33N 36°10' W 005°24'1 0.6
2015-Apr-16 22:04N 36°10' W 005°23'0 0.0
2015-Apr-16 21:33N 36°10' W 005°23'1 0.3
2015-Apr-16 18:27N 36°11' W 005°24'0 0.1
2015-Apr-16 16:28N 36°11' W 005°24'0 0.1
2015-Apr-16 15:33N 36°11' W 005°24'0 0.1
2015-Apr-16 13:15N 36°11' W 005°24'0 0.0
2015-Apr-16 10:20N 36°11' W 005°24'0 0.2
2015-Apr-16 09:13N 36°11' W 005°24'0 0.0
2015-Apr-15 01:28N 36°11' W 005°24'0 0.4
2015-Apr-15 00:33N 36°11' W 005°24'0 0.2
2015-Apr-14 22:33N 36°10' W 005°24'0 0.0
2015-Apr-14 02:28N 36°10' W 005°24'1 0.1
2015-Apr-13 15:23N 36°10' W 005°25'1 0.7
2015-Apr-13 14:26N 36°10' W 005°25'1 1.1
2015-Apr-13 13:18N 36°11' W 005°24'0 0.1
2015-Apr-13 10:09N 36°11' W 005°24'0 0.3
2015-Apr-13 09:25N 36°11' W 005°24'0 0.5
2015-Apr-13 08:28N 36°11' W 005°24'0 0.0
2015-Apr-13 01:26N 36°11' W 005°24'1 0.6
2015-Apr-12 23:28N 36°10' W 005°23'1 0.2
2015-Apr-12 18:33N 36°11' W 005°24'0 0.2
2015-Apr-12 17:28N 36°11' W 005°24'0 0.3
2015-Apr-12 16:33N 36°11' W 005°24'0 0.3
2015-Apr-12 15:33N 36°11' W 005°24'1 0.6
2015-Apr-12 14:30N 36°10' W 005°25'0 0.3
2015-Apr-12 13:18N 36°10' W 005°24'0 0.1
2015-Apr-12 10:26N 36°11' W 005°24'1 0.8
2015-Apr-12 09:25N 36°10' W 005°24'1 0.4
2015-Apr-12 06:28N 36°10' W 005°23'0 0.1
2015-Apr-12 04:31N 36°10' W 005°23'1 1.1
2015-Apr-12 03:30N 36°11' W 005°24'0 0.0
2015-Apr-12 02:21N 36°11' W 005°24'0 0.0
2015-Apr-12 01:22N 36°11' W 005°24'1 0.5
2015-Apr-12 00:22N 36°11' W 005°24'1 0.6
2015-Apr-11 23:29N 36°11' W 005°24'0 0.0
2015-Apr-11 22:22N 36°11' W 005°24'0 0.0
2015-Apr-11 21:13N 36°11' W 005°24'1 0.7
2015-Apr-11 19:14N 36°10' W 005°23'1 0.2
2015-Apr-11 14:22N 36°10' W 005°24'1 0.2
2015-Apr-11 06:13N 36°11' W 005°25'1 0.8
2015-Apr-11 04:33N 36°11' W 005°24'0 0.1
2015-Apr-11 02:15N 36°10' W 005°24'0 0.1
2015-Apr-11 00:16N 36°11' W 005°24'  

Dump ship's entire track history